createdAt,value
2024-01-20T00:09:38.761Z,97676.53
2024-01-20T00:20:07.932Z,97686.84
2024-01-20T00:30:29.151Z,97675.66
2024-01-20T00:40:49.851Z,97676.41
2024-01-20T00:51:10.868Z,97679.13
2024-01-20T01:01:32.092Z,97684.53
2024-01-20T01:12:06.540Z,97681.63
2024-01-20T01:22:43.673Z,97692.22
2024-01-20T01:33:04.889Z,97711.03
2024-01-20T01:43:26.575Z,97721.28
2024-01-20T01:53:48.614Z,97726.13
2024-01-20T02:04:09.461Z,97737.47
2024-01-20T02:14:30.513Z,97744.28
2024-01-20T02:24:51.826Z,97734.72
2024-01-20T02:35:13.018Z,97730.56
2024-01-20T02:45:33.824Z,97728.34
2024-01-20T02:55:54.679Z,97742.13
2024-01-20T03:06:15.631Z,97765.03
2024-01-20T03:16:36.503Z,97747.47
2024-01-20T03:26:59.952Z,97763.13
2024-01-20T03:37:21.093Z,97769.06
2024-01-20T03:47:41.930Z,97793.75
2024-01-20T03:58:02.703Z,97798.03
2024-01-20T04:08:23.541Z,97802.03
2024-01-20T04:18:44.606Z,97805.31
2024-01-20T04:29:05.211Z,97796.72
2024-01-20T04:39:25.930Z,97807.81
2024-01-20T04:49:46.724Z,97815.56
2024-01-20T05:00:08.300Z,97820.09
2024-01-20T05:10:29.573Z,97828.88
2024-01-20T05:20:50.317Z,97854.75
2024-01-20T05:31:11.589Z,97854.69
2024-01-20T05:41:32.384Z,97861.38
2024-01-20T05:51:53.389Z,97880.72
2024-01-20T06:02:14.164Z,97877.56
2024-01-20T06:12:35.085Z,97888.63
2024-01-20T06:22:56.373Z,97892.03
2024-01-20T06:33:17.836Z,97910.84
2024-01-20T06:43:38.518Z,97910.78
2024-01-20T06:53:59.664Z,97925.06
2024-01-20T07:04:20.921Z,97921.91
2024-01-20T07:14:43.710Z,97947.13
2024-01-20T07:25:06.202Z,97944.03
2024-01-20T07:35:27.078Z,97966.41
2024-01-20T07:45:48.432Z,97984.19
2024-01-20T07:56:10.695Z,97985.59
2024-01-20T08:06:31.626Z,97988.66
2024-01-20T08:16:52.552Z,97994.19
2024-01-20T08:27:13.618Z,97992.66
2024-01-20T08:37:36.460Z,98002.06
2024-01-20T08:47:57.408Z,98016.63
2024-01-20T08:58:18.347Z,98015.75
2024-01-20T09:08:39.028Z,98031.94
2024-01-20T09:18:59.852Z,98050.31
2024-01-20T09:29:21.274Z,98050.78
2024-01-20T09:39:42.350Z,98040.19
2024-01-20T09:50:06.736Z,98044.72
2024-01-20T10:00:27.976Z,98045.78
2024-01-20T10:10:49.190Z,98038.13
2024-01-20T10:21:10.418Z,98041.19
2024-01-20T10:31:33.119Z,98043.19
2024-01-20T10:41:59.418Z,98038.94
2024-01-20T10:52:29.504Z,98043.03
2024-01-20T11:02:51.564Z,98035.44
2024-01-20T11:13:14.746Z,98018.19
2024-01-20T11:23:35.819Z,98013.53
2024-01-20T11:33:56.897Z,98003.56
2024-01-20T11:44:21.722Z,98002.19
2024-01-20T11:54:42.767Z,97992.38
2024-01-20T12:05:08.740Z,97993.38
2024-01-20T12:15:37.430Z,97981.09
2024-01-20T12:25:59.127Z,97985.41
2024-01-20T12:36:20.305Z,97989.19
2024-01-20T12:46:41.378Z,97978.41
2024-01-20T12:57:03.254Z,97985.66
2024-01-20T13:07:25.166Z,97982.75
2024-01-20T13:17:46.226Z,97985.63
2024-01-20T13:28:07.926Z,97977.56
2024-01-20T13:38:29.109Z,97987.03
2024-01-20T13:48:50.590Z,97995.66
2024-01-20T13:59:11.427Z,98009.97
2024-01-20T14:09:32.222Z,98008.38
2024-01-20T14:19:53.306Z,98003.59
2024-01-20T14:30:15.172Z,98020.94
2024-01-20T14:40:36.559Z,98017.97
2024-01-20T14:50:57.620Z,98028.56
2024-01-20T15:01:18.791Z,98032.31
2024-01-20T15:11:40.070Z,98046.13
2024-01-20T15:22:01.104Z,98050.09
2024-01-20T15:32:22.193Z,98063.44
2024-01-20T15:42:43.891Z,98074.09
2024-01-20T15:53:04.949Z,98091.69
2024-01-20T16:03:25.777Z,98097.72
2024-01-20T16:13:47.035Z,98111.75
2024-01-20T16:24:08.172Z,98119.78
2024-01-20T16:34:28.988Z,98127.06
2024-01-20T16:44:49.649Z,98134.56
2024-01-20T16:55:14.955Z,98142.44
2024-01-20T17:05:37.389Z,98139.06
2024-01-20T17:15:58.038Z,98155.19
2024-01-20T17:26:29.910Z,98164.03
2024-01-20T17:36:50.894Z,98170.88
2024-01-20T17:47:11.924Z,98157.66
2024-01-20T17:57:32.826Z,98173.25
2024-01-20T18:07:54.400Z,98171.03
2024-01-20T18:18:15.441Z,98179.66
2024-01-20T18:28:36.665Z,98200.94
2024-01-20T18:38:58.264Z,98203.81
2024-01-20T18:49:19.379Z,98196.97
2024-01-20T18:59:41.851Z,98209.75
2024-01-20T19:10:03.514Z,98212.50
2024-01-20T19:20:25.123Z,98222.78
2024-01-20T19:30:46.029Z,98228.88
2024-01-20T19:41:06.774Z,98226.38
2024-01-20T19:51:27.583Z,98227.19
2024-01-20T20:01:49.438Z,98230.72
2024-01-20T20:12:10.592Z,98230.91
2024-01-20T20:22:31.381Z,98247.03
2024-01-20T20:32:52.516Z,98253.66
2024-01-20T20:43:13.397Z,98252.44
2024-01-20T20:53:34.270Z,98248.47
2024-01-20T21:03:55.367Z,98235.44
2024-01-20T21:14:16.597Z,98253.81
2024-01-20T21:24:38.541Z,98248.94
2024-01-20T21:34:59.712Z,98246.38
2024-01-20T21:45:20.925Z,98264.19
2024-01-20T21:55:41.767Z,98250.63
2024-01-20T22:06:02.710Z,98262.59
2024-01-20T22:16:24.844Z,98260.91
2024-01-20T22:26:46.481Z,98269.63
2024-01-20T22:37:07.166Z,98269.91
2024-01-20T22:47:28.130Z,98269.84
2024-01-20T22:57:49.008Z,98269.00
2024-01-20T23:08:11.617Z,98267.50
2024-01-20T23:18:33.237Z,98256.53
2024-01-20T23:28:54.003Z,98260.84
2024-01-20T23:39:15.268Z,98263.41
2024-01-20T23:49:36.361Z,98251.72
2024-01-20T23:59:57.030Z,98250.78
